Time;durP1;ratioP1;P1;durP2;ratioP2;P2;SDS_P1;SDS_P2;PMS_P1;PMS_P2;Temp;Humidity;BMP_temperature;BMP_pressure;BME280_temperature;BME280_humidity;BME280_pressure;Samples;Min_cycle;Max_cycle;Signal;HPM_P1;HPM_P2
2022/05/22 00:00:01;;;;;;;2.70;2.42;;;;;;;;;;4407630;32;20105;-72
2022/05/22 00:02:27;;;;;;;2.45;2.10;;;;;;;;;;4407513;32;20125;-72
2022/05/22 00:34:49;;;;;;;5.85;2.90;;;;;;;;;;4269591;33;20120;-61
2022/05/22 00:37:15;;;;;;;3.42;2.35;;;;;;;;;;4254784;33;20133;-61
2022/05/22 00:39:41;;;;;;;2.58;2.33;;;;;;;;;;4255777;33;20089;-61
2022/05/22 00:42:20;;;;;;;3.20;2.22;;;;;;;;;;4261214;33;20539;-61
2022/05/22 00:44:46;;;;;;;3.75;2.22;;;;;;;;;;4261071;33;20223;-66
2022/05/22 00:47:13;;;;;;;3.50;2.40;;;;;;;;;;4259925;33;20119;-66
2022/05/22 00:49:43;;;;;;;4.65;2.40;;;;;;;;;;4260112;33;20151;-65
2022/05/22 00:52:29;;;;;;;5.70;2.62;;;;;;;;;;4260028;33;20124;-60
2022/05/22 00:54:59;;;;;;;3.53;2.22;;;;;;;;;;4259351;33;20524;-61
2022/05/22 00:57:36;;;;;;;4.47;2.40;;;;;;;;;;4261198;33;20617;-61
2022/05/22 01:00:08;;;;;;;2.90;2.35;;;;;;;;;;4259611;33;20107;-60
2022/05/22 01:05:19;;;;;;;5.57;2.03;;;;;;;;;;4259909;33;20536;-63
2022/05/22 01:07:45;;;;;;;3.12;2.50;;;;;;;;;;4261311;33;20218;-62
2022/05/22 01:10:12;;;;;;;2.95;2.10;;;;;;;;;;4260918;33;20108;-62
2022/05/22 01:12:40;;;;;;;2.20;2.00;;;;;;;;;;4261036;33;20112;-62
2022/05/22 01:15:07;;;;;;;4.35;2.75;;;;;;;;;;4259596;33;20112;-62
2022/05/22 01:17:39;;;;;;;3.08;2.10;;;;;;;;;;4260987;33;20124;-62
2022/05/22 01:20:06;;;;;;;3.28;2.37;;;;;;;;;;4259465;33;20081;-62
2022/05/22 01:22:32;;;;;;;3.15;2.17;;;;;;;;;;4260974;33;20215;-61
2022/05/22 01:24:58;;;;;;;2.78;2.00;;;;;;;;;;4260309;33;20496;-62
2022/05/22 01:27:25;;;;;;;4.45;3.00;;;;;;;;;;4260896;33;20215;-62
2022/05/22 01:30:13;;;;;;;4.47;2.40;;;;;;;;;;4261122;33;20128;-61
2022/05/22 01:32:41;;;;;;;6.45;2.33;;;;;;;;;;4260828;33;20461;-61
2022/05/22 01:35:09;;;;;;;4.72;2.20;;;;;;;;;;4262066;33;20122;-61
2022/05/22 01:37:35;;;;;;;4.97;2.40;;;;;;;;;;4275128;33;20080;-61
2022/05/22 01:40:01;;;;;;;6.03;2.35;;;;;;;;;;4275028;33;20127;-61
2022/05/22 01:42:28;;;;;;;3.37;2.25;;;;;;;;;;4275078;33;20100;-62
2022/05/22 01:44:54;;;;;;;3.12;2.05;;;;;;;;;;4275013;33;20096;-61
2022/05/22 01:47:20;;;;;;;6.05;2.40;;;;;;;;;;4275151;33;20118;-62
2022/05/22 01:49:46;;;;;;;7.50;2.10;;;;;;;;;;4275207;33;20107;-62
2022/05/22 01:52:12;;;;;;;3.37;2.00;;;;;;;;;;4275103;33;20120;-62
2022/05/22 01:54:38;;;;;;;2.78;2.00;;;;;;;;;;4261700;33;20538;-62
2022/05/22 01:57:04;;;;;;;8.05;2.17;;;;;;;;;;4275287;33;20455;-61
2022/05/22 01:59:30;;;;;;;9.88;3.47;;;;;;;;;;4274902;33;20111;-62
2022/05/22 02:01:56;;;;;;;3.83;1.95;;;;;;;;;;4275013;33;20131;-61
2022/05/22 02:04:23;;;;;;;5.50;2.40;;;;;;;;;;4274962;33;20122;-62
2022/05/22 02:09:34;;;;;;;3.17;2.22;;;;;;;;;;4274782;33;20124;-62
2022/05/22 02:12:00;;;;;;;4.07;2.30;;;;;;;;;;4274925;33;20112;-62
2022/05/22 02:14:26;;;;;;;2.92;2.00;;;;;;;;;;4275091;33;20173;-62
2022/05/22 02:16:52;;;;;;;2.20;2.00;;;;;;;;;;4261693;33;20194;-62
2022/05/22 02:19:18;;;;;;;3.95;2.25;;;;;;;;;;4261406;33;20538;-62
2022/05/22 02:21:45;;;;;;;6.20;2.22;;;;;;;;;;4274758;33;20127;-62
2022/05/22 02:24:11;;;;;;;2.55;2.20;;;;;;;;;;4274478;33;20111;-61
2022/05/22 02:26:38;;;;;;;5.80;2.33;;;;;;;;;;4274728;33;20148;-61
2022/05/22 02:29:05;;;;;;;2.90;2.37;;;;;;;;;;4274793;33;20540;-62
2022/05/22 02:31:31;;;;;;;5.15;3.20;;;;;;;;;;4261629;33;20108;-60
2022/05/22 02:33:58;;;;;;;4.68;2.53;;;;;;;;;;4274809;33;20120;-61
2022/05/22 02:36:24;;;;;;;4.40;2.53;;;;;;;;;;4274148;33;20098;-61
2022/05/22 02:38:50;;;;;;;3.87;2.53;;;;;;;;;;4274626;33;20112;-61
2022/05/22 02:42:04;;;;;;;3.50;2.58;;;;;;;;;;4263614;33;20524;-60
2022/05/22 02:44:30;;;;;;;5.30;2.47;;;;;;;;;;4274309;33;20131;-61
2022/05/22 02:46:55;;;;;;;5.25;2.22;;;;;;;;;;4274573;33;20116;-62
2022/05/22 02:49:21;;;;;;;6.82;2.92;;;;;;;;;;4274497;33;20202;-61
2022/05/22 02:51:47;;;;;;;3.58;2.80;;;;;;;;;;4274365;33;20620;-61
2022/05/22 02:54:13;;;;;;;7.32;2.85;;;;;;;;;;4261059;33;20191;-61
2022/05/22 02:56:40;;;;;;;9.88;2.35;;;;;;;;;;4261020;33;20179;-61
2022/05/22 02:59:07;;;;;;;3.87;2.40;;;;;;;;;;4272791;33;20120;-61
2022/05/22 03:01:33;;;;;;;5.53;2.45;;;;;;;;;;4274464;33;20119;-61
2022/05/22 03:03:59;;;;;;;3.95;2.47;;;;;;;;;;4274384;33;20206;-65
2022/05/22 03:06:40;;;;;;;5.40;2.03;;;;;;;;;;4274292;33;20204;-62
2022/05/22 03:09:15;;;;;;;4.95;2.03;;;;;;;;;;4260037;33;20111;-62
2022/05/22 03:11:41;;;;;;;3.05;2.20;;;;;;;;;;4261824;33;20757;-61
2022/05/22 03:14:07;;;;;;;8.25;2.58;;;;;;;;;;4272357;33;20120;-61
2022/05/22 03:16:34;;;;;;;3.33;2.53;;;;;;;;;;4260603;33;20134;-61
2022/05/22 03:19:00;;;;;;;3.50;2.17;;;;;;;;;;4274417;33;20120;-61
2022/05/22 03:21:27;;;;;;;2.97;2.20;;;;;;;;;;4273922;33;20127;-62
2022/05/22 03:23:53;;;;;;;4.78;2.10;;;;;;;;;;4273965;33;20188;-61
2022/05/22 03:26:19;;;;;;;2.97;1.87;;;;;;;;;;4260925;33;20527;-64
2022/05/22 03:28:46;;;;;;;3.30;1.95;;;;;;;;;;4274280;33;20191;-63
2022/05/22 03:31:12;;;;;;;5.45;1.95;;;;;;;;;;4273417;33;20166;-62
2022/05/22 03:33:38;;;;;;;4.97;1.98;;;;;;;;;;4260857;33;20101;-67
2022/05/22 03:36:05;;;;;;;3.22;1.92;;;;;;;;;;4249020;33;20802;-66
2022/05/22 03:38:32;;;;;;;3.90;2.03;;;;;;;;;;4272797;33;20116;-66
2022/05/22 03:40:58;;;;;;;2.20;1.80;;;;;;;;;;4248614;33;20520;-67
2022/05/22 03:43:24;;;;;;;3.85;1.83;;;;;;;;;;4274074;33;20092;-66
2022/05/22 03:45:51;;;;;;;2.05;1.85;;;;;;;;;;4273787;33;20088;-66
2022/05/22 03:48:17;;;;;;;3.62;1.90;;;;;;;;;;4275451;33;20303;-67
2022/05/22 03:50:43;;;;;;;2.85;1.83;;;;;;;;;;4274206;33;20208;-68
2022/05/22 03:53:09;;;;;;;3.00;1.77;;;;;;;;;;4274251;33;20191;-65
2022/05/22 03:55:35;;;;;;;2.05;1.85;;;;;;;;;;4275730;33;20528;-70
2022/05/22 03:58:01;;;;;;;1.92;1.73;;;;;;;;;;4276014;33;20144;-67
2022/05/22 04:00:27;;;;;;;2.03;1.80;;;;;;;;;;4275781;33;20200;-67
2022/05/22 04:02:53;;;;;;;2.05;1.58;;;;;;;;;;4273943;33;20224;-68
2022/05/22 04:05:19;;;;;;;2.17;1.70;;;;;;;;;;4267852;33;20521;-68
2022/05/22 04:07:47;;;;;;;4.70;1.87;;;;;;;;;;4261677;33;20121;-67
2022/05/22 04:10:15;;;;;;;5.18;2.20;;;;;;;;;;4261817;33;20540;-67
2022/05/22 04:12:44;;;;;;;2.87;1.60;;;;;;;;;;4261608;33;20572;-68
2022/05/22 04:15:13;;;;;;;2.90;1.77;;;;;;;;;;4262710;33;20198;-68
2022/05/22 04:17:39;;;;;;;4.65;2.50;;;;;;;;;;4262702;33;20142;-67
2022/05/22 04:20:07;;;;;;;1.58;1.48;;;;;;;;;;4275803;33;20495;-67
2022/05/22 04:22:33;;;;;;;2.87;1.60;;;;;;;;;;4274740;33;20535;-67
2022/05/22 04:25:21;;;;;;;4.40;1.90;;;;;;;;;;4263066;33;20222;-67
2022/05/22 04:27:47;;;;;;;3.22;1.90;;;;;;;;;;4274777;33;20539;-68
2022/05/22 04:30:19;;;;;;;2.47;1.90;;;;;;;;;;4274607;33;20096;-68
2022/05/22 04:32:46;;;;;;;3.45;1.58;;;;;;;;;;4260432;33;20099;-68
2022/05/22 04:35:13;;;;;;;2.55;1.48;;;;;;;;;;4261052;33;20104;-68
2022/05/22 04:37:39;;;;;;;2.00;1.50;;;;;;;;;;4274751;33;20108;-68
2022/05/22 04:40:07;;;;;;;4.35;2.22;;;;;;;;;;4274543;33;20202;-69
2022/05/22 04:42:36;;;;;;;2.58;1.77;;;;;;;;;;4249492;33;20151;-68
2022/05/22 04:45:04;;;;;;;3.22;1.92;;;;;;;;;;4261074;33;20115;-68
2022/05/22 04:47:30;;;;;;;2.45;1.87;;;;;;;;;;4274210;33;20116;-69
2022/05/22 04:49:56;;;;;;;3.08;1.70;;;;;;;;;;4274388;33;20530;-68
2022/05/22 04:52:22;;;;;;;2.60;2.10;;;;;;;;;;4274527;33;20447;-68
2022/05/22 04:54:48;;;;;;;4.20;2.08;;;;;;;;;;4272992;33;20214;-70
2022/05/22 04:57:14;;;;;;;2.55;1.60;;;;;;;;;;4275255;33;20216;-67
2022/05/22 04:59:40;;;;;;;1.67;1.40;;;;;;;;;;4275472;33;20139;-67
2022/05/22 05:02:06;;;;;;;2.05;1.60;;;;;;;;;;4275446;33;20100;-67
2022/05/22 05:04:32;;;;;;;2.58;1.60;;;;;;;;;;4275457;33;20116;-67
2022/05/22 05:06:58;;;;;;;4.62;1.92;;;;;;;;;;4275536;33;20535;-64
2022/05/22 05:09:24;;;;;;;4.20;2.00;;;;;;;;;;4275396;33;20108;-65
2022/05/22 05:11:50;;;;;;;4.82;3.22;;;;;;;;;;4275354;33;20092;-65
2022/05/22 05:14:16;;;;;;;7.65;4.80;;;;;;;;;;4275163;33;20211;-65
2022/05/22 05:16:42;;;;;;;6.95;4.70;;;;;;;;;;4262153;33;20578;-65
2022/05/22 05:19:08;;;;;;;5.68;3.08;;;;;;;;;;4275342;33;20528;-67
2022/05/22 05:21:34;;;;;;;2.65;2.15;;;;;;;;;;4271198;33;20460;-66
2022/05/22 05:24:00;;;;;;;2.65;1.67;;;;;;;;;;4260664;33;20227;-70
2022/05/22 05:26:26;;;;;;;2.20;1.65;;;;;;;;;;4260704;33;20116;-70
2022/05/22 05:28:52;;;;;;;1.90;1.70;;;;;;;;;;4261148;33;20471;-70
2022/05/22 05:31:18;;;;;;;1.85;1.75;;;;;;;;;;4260081;33;20108;-68
2022/05/22 05:33:44;;;;;;;2.87;2.22;;;;;;;;;;4258101;33;20109;-70
2022/05/22 05:36:11;;;;;;;2.90;2.10;;;;;;;;;;4248026;33;20112;-68
2022/05/22 05:38:38;;;;;;;2.78;2.15;;;;;;;;;;4260807;33;20188;-70
2022/05/22 05:41:03;;;;;;;4.20;2.00;;;;;;;;;;4274114;33;20135;-71
2022/05/22 05:43:29;;;;;;;7.35;2.05;;;;;;;;;;4260682;33;20123;-68
2022/05/22 05:45:55;;;;;;;3.42;2.12;;;;;;;;;;4274201;33;20124;-70
2022/05/22 05:48:21;;;;;;;3.40;2.20;;;;;;;;;;4268994;33;20120;-65
2022/05/22 05:50:47;;;;;;;5.85;1.90;;;;;;;;;;4273721;33;20099;-69
2022/05/22 05:53:13;;;;;;;3.55;2.00;;;;;;;;;;4274075;33;20611;-69
2022/05/22 05:55:39;;;;;;;5.82;2.30;;;;;;;;;;4273163;33;20528;-69
2022/05/22 05:58:05;;;;;;;2.67;1.95;;;;;;;;;;4274555;33;20136;-68
2022/05/22 06:00:31;;;;;;;5.28;2.58;;;;;;;;;;4274853;33;20100;-69
2022/05/22 06:02:57;;;;;;;4.35;2.83;;;;;;;;;;4275090;33;20099;-68
2022/05/22 06:05:23;;;;;;;6.28;3.58;;;;;;;;;;4274402;33;20130;-68
2022/05/22 06:07:53;;;;;;;6.93;3.55;;;;;;;;;;4260246;33;20539;-68
2022/05/22 06:10:20;;;;;;;11.38;3.47;;;;;;;;;;4273617;33;20116;-68
2022/05/22 06:12:46;;;;;;;6.07;3.62;;;;;;;;;;4261334;33;20183;-68
2022/05/22 06:15:14;;;;;;;7.12;3.00;;;;;;;;;;4273192;33;20183;-68
2022/05/22 06:17:46;;;;;;;4.25;2.55;;;;;;;;;;4274892;33;20665;-68
2022/05/22 06:20:16;;;;;;;3.33;2.60;;;;;;;;;;4261727;33;20131;-68
2022/05/22 06:22:44;;;;;;;4.37;2.65;;;;;;;;;;4274470;33;20148;-68
2022/05/22 06:25:12;;;;;;;3.47;2.55;;;;;;;;;;4261809;33;20218;-68
2022/05/22 06:27:38;;;;;;;6.30;3.12;;;;;;;;;;4274808;33;20099;-68
2022/05/22 06:30:05;;;;;;;3.28;2.83;;;;;;;;;;4249848;33;20463;-68
2022/05/22 06:32:32;;;;;;;3.78;2.67;;;;;;;;;;4274549;33;20104;-68
2022/05/22 06:34:58;;;;;;;3.33;2.67;;;;;;;;;;4274480;33;20103;-68
2022/05/22 06:37:24;;;;;;;2.97;2.58;;;;;;;;;;4260965;33;20217;-68
2022/05/22 06:39:51;;;;;;;3.70;2.70;;;;;;;;;;4274664;33;20405;-68
2022/05/22 06:42:28;;;;;;;4.50;3.17;;;;;;;;;;4249407;33;20107;-68
2022/05/22 06:45:00;;;;;;;6.97;2.72;;;;;;;;;;4274518;33;20114;-68
2022/05/22 06:47:28;;;;;;;3.40;2.62;;;;;;;;;;4261314;33;20529;-68
2022/05/22 06:49:57;;;;;;;3.45;2.30;;;;;;;;;;4274628;33;20116;-68
2022/05/22 06:52:23;;;;;;;5.32;2.65;;;;;;;;;;4261054;33;20097;-67
2022/05/22 06:54:49;;;;;;;3.83;2.35;;;;;;;;;;4261082;33;20111;-68
2022/05/22 06:57:20;;;;;;;4.35;2.20;;;;;;;;;;4261238;33;20194;-68
2022/05/22 06:59:48;;;;;;;3.22;2.60;;;;;;;;;;4248997;33;20618;-68
2022/05/22 07:02:15;;;;;;;4.37;2.20;;;;;;;;;;4260947;33;20096;-68
2022/05/22 07:04:41;;;;;;;4.05;2.53;;;;;;;;;;4249138;33;20637;-68
2022/05/22 07:07:07;;;;;;;4.22;2.20;;;;;;;;;;4274454;33;20116;-68
2022/05/22 07:09:33;;;;;;;4.85;2.40;;;;;;;;;;4272905;33;20132;-68
2022/05/22 07:11:59;;;;;;;4.03;2.42;;;;;;;;;;4260948;33;20122;-68
2022/05/22 07:14:27;;;;;;;2.65;2.35;;;;;;;;;;4274035;33;20127;-68
2022/05/22 07:16:54;;;;;;;3.55;2.72;;;;;;;;;;4274217;33;20123;-68
2022/05/22 07:19:21;;;;;;;3.65;2.33;;;;;;;;;;4272771;33;20096;-68
2022/05/22 07:21:47;;;;;;;5.10;2.50;;;;;;;;;;4260925;33;20491;-68
2022/05/22 07:24:14;;;;;;;4.97;2.42;;;;;;;;;;4276099;33;20108;-68
2022/05/22 07:26:40;;;;;;;2.75;2.30;;;;;;;;;;4251246;33;20123;-68
2022/05/22 07:29:06;;;;;;;2.83;2.10;;;;;;;;;;4262849;33;20464;-68
2022/05/22 07:31:34;;;;;;;2.65;2.35;;;;;;;;;;4276389;33;20111;-68
2022/05/22 07:34:00;;;;;;;3.37;2.47;;;;;;;;;;4251540;33;20107;-68
2022/05/22 07:36:26;;;;;;;4.22;2.67;;;;;;;;;;4275940;33;20305;-68
2022/05/22 07:38:52;;;;;;;3.05;2.60;;;;;;;;;;4262870;33;20105;-68
2022/05/22 07:41:18;;;;;;;3.22;2.45;;;;;;;;;;4276375;33;20192;-68
2022/05/22 07:43:45;;;;;;;3.75;2.40;;;;;;;;;;4262958;33;20190;-68
2022/05/22 07:46:14;;;;;;;3.10;2.40;;;;;;;;;;4276178;33;20123;-68
2022/05/22 07:48:41;;;;;;;3.33;2.58;;;;;;;;;;4276005;33;20189;-68
2022/05/22 07:51:08;;;;;;;2.80;2.20;;;;;;;;;;4263047;33;20124;-68
2022/05/22 07:53:35;;;;;;;2.50;1.98;;;;;;;;;;4274616;33;20112;-68
2022/05/22 07:56:02;;;;;;;2.92;1.55;;;;;;;;;;4276213;33;20104;-68
2022/05/22 07:58:29;;;;;;;1.80;1.60;;;;;;;;;;4276285;33;20116;-68
2022/05/22 08:00:55;;;;;;;2.50;1.70;;;;;;;;;;4276087;33;20115;-68
2022/05/22 08:03:22;;;;;;;2.62;2.03;;;;;;;;;;4250903;33;20088;-66
2022/05/22 08:05:48;;;;;;;2.70;1.73;;;;;;;;;;4276139;33;20455;-65
2022/05/22 08:08:16;;;;;;;3.05;2.22;;;;;;;;;;4276013;33;20089;-65
2022/05/22 08:10:42;;;;;;;2.92;1.95;;;;;;;;;;4275858;33;20095;-66
2022/05/22 08:13:10;;;;;;;2.20;2.00;;;;;;;;;;4275718;33;20123;-66
2022/05/22 08:15:38;;;;;;;2.80;1.92;;;;;;;;;;4275762;33;20119;-66
2022/05/22 08:18:04;;;;;;;2.95;2.22;;;;;;;;;;4275894;33;20104;-68
2022/05/22 08:20:34;;;;;;;2.65;1.98;;;;;;;;;;4275700;33;20452;-66
2022/05/22 08:23:08;;;;;;;4.90;2.40;;;;;;;;;;4275802;33;20139;-65
2022/05/22 08:25:34;;;;;;;4.62;2.12;;;;;;;;;;4262432;33;20127;-66
2022/05/22 08:28:01;;;;;;;2.62;2.22;;;;;;;;;;4275711;33;20122;-66
2022/05/22 08:30:29;;;;;;;2.78;2.15;;;;;;;;;;4262492;33;20108;-66
2022/05/22 08:32:55;;;;;;;2.40;1.80;;;;;;;;;;4275324;33;20109;-66
2022/05/22 08:35:26;;;;;;;3.25;2.30;;;;;;;;;;4275476;33;20087;-66
2022/05/22 08:37:52;;;;;;;4.55;2.40;;;;;;;;;;4275852;33;20198;-66
2022/05/22 08:40:20;;;;;;;3.70;2.67;;;;;;;;;;4262177;33;20112;-66
2022/05/22 08:43:07;;;;;;;2.95;2.00;;;;;;;;;;4262060;33;20092;-66
2022/05/22 08:45:40;;;;;;;2.83;1.83;;;;;;;;;;4262382;33;20543;-66
2022/05/22 08:48:41;;;;;;;3.08;1.85;;;;;;;;;;4262510;33;20471;-66
2022/05/22 08:51:14;;;;;;;2.42;2.15;;;;;;;;;;4267694;33;20119;-66
2022/05/22 08:53:43;;;;;;;4.25;2.12;;;;;;;;;;4275546;33;20471;-66
2022/05/22 08:59:10;;;;;;;3.78;2.35;;;;;;;;;;4275626;33;20511;-65
2022/05/22 09:01:48;;;;;;;3.87;1.90;;;;;;;;;;4262352;33;20494;-65
2022/05/22 09:04:44;;;;;;;5.82;2.55;;;;;;;;;;4262097;33;20112;-66
2022/05/22 09:07:16;;;;;;;4.60;2.42;;;;;;;;;;4261019;33;20125;-65
2022/05/22 09:09:45;;;;;;;3.40;2.40;;;;;;;;;;4275598;33;20097;-65
2022/05/22 09:12:11;;;;;;;2.83;2.40;;;;;;;;;;4275419;33;20190;-65
2022/05/22 09:14:47;;;;;;;3.03;2.10;;;;;;;;;;4275540;33;20112;-65
2022/05/22 09:17:15;;;;;;;;;;;;;;;;;;4275688;33;20112;-65
2022/05/22 09:19:46;;;;;;;2.92;2.10;;;;;;;;;;4275043;33;19984;-65
2022/05/22 09:22:35;;;;;;;4.45;2.58;;;;;;;;;;4275400;33;20112;-65
2022/05/22 09:25:22;;;;;;;2.78;2.20;;;;;;;;;;4245336;33;20645;-65
2022/05/22 09:27:51;;;;;;;4.20;2.50;;;;;;;;;;4275153;33;20127;-65
2022/05/22 09:30:35;;;;;;;4.82;2.30;;;;;;;;;;4275231;33;20175;-66
2022/05/22 09:33:25;;;;;;;6.68;2.40;;;;;;;;;;4275315;33;20118;-65
2022/05/22 09:36:08;;;;;;;3.05;2.17;;;;;;;;;;4275040;33;20520;-65
2022/05/22 09:39:13;;;;;;;2.47;2.12;;;;;;;;;;4273646;33;20105;-65
2022/05/22 09:41:58;;;;;;;3.67;2.08;;;;;;;;;;4261737;33;20124;-67
2022/05/22 09:44:51;;;;;;;2.85;2.03;;;;;;;;;;4274435;33;20116;-65
2022/05/22 09:47:52;;;;;;;3.75;2.08;;;;;;;;;;4275131;33;20084;-65
2022/05/22 09:50:20;;;;;;;2.70;1.92;;;;;;;;;;4245276;33;20135;-65
2022/05/22 09:52:46;;;;;;;4.22;2.10;;;;;;;;;;4275141;33;20508;-68
2022/05/22 09:55:24;;;;;;;4.05;1.75;;;;;;;;;;4275246;33;20111;-65
2022/05/22 09:58:11;;;;;;;4.15;2.10;;;;;;;;;;4275051;33;20239;-67
2022/05/22 10:00:49;;;;;;;11.73;6.12;;;;;;;;;;4261513;33;20100;-68
2022/05/22 10:03:50;;;;;;;5.93;2.25;;;;;;;;;;4274998;33;20127;-65
2022/05/22 10:06:42;;;;;;;6.78;2.40;;;;;;;;;;4243338;33;20563;-65
2022/05/22 10:09:42;;;;;;;4.28;2.75;;;;;;;;;;4261539;33;20100;-65
2022/05/22 10:12:38;;;;;;;3.28;2.20;;;;;;;;;;4261490;33;20436;-65
2022/05/22 10:15:07;;;;;;;5.12;2.67;;;;;;;;;;4262983;33;20114;-66
2022/05/22 10:17:51;;;;;;;3.72;2.30;;;;;;;;;;4274942;33;20146;-66
2022/05/22 10:20:23;;;;;;;4.97;2.80;;;;;;;;;;4273244;33;20119;-65
2022/05/22 10:23:36;;;;;;;3.92;2.37;;;;;;;;;;4274879;33;20435;-66
2022/05/22 10:26:13;;;;;;;3.33;2.20;;;;;;;;;;4248553;33;20212;-65
2022/05/22 10:28:52;;;;;;;8.63;1.92;;;;;;;;;;4274659;33;20514;-66
2022/05/22 10:31:25;;;;;;;6.65;2.17;;;;;;;;;;4261270;33;20112;-66
2022/05/22 10:34:06;;;;;;;8.45;2.10;;;;;;;;;;4274623;33;20103;-68
2022/05/22 10:36:39;;;;;;;6.05;2.40;;;;;;;;;;4274399;33;20588;-66
2022/05/22 10:39:07;;;;;;;5.40;2.47;;;;;;;;;;4261278;33;20124;-66
2022/05/22 10:44:36;;;;;;;5.15;3.00;;;;;;;;;;4274463;33;20175;-68
2022/05/22 10:47:03;;;;;;;9.95;3.28;;;;;;;;;;4261410;33;20116;-67
2022/05/22 10:49:41;;;;;;;2.85;1.70;;;;;;;;;;4274475;33;20120;-66
2022/05/22 10:52:09;;;;;;;2.58;2.20;;;;;;;;;;4261139;33;20115;-66
2022/05/22 10:54:47;;;;;;;3.40;2.22;;;;;;;;;;4274213;33;20119;-65
2022/05/22 10:57:26;;;;;;;2.10;1.85;;;;;;;;;;4276176;33;20184;-66
2022/05/22 10:59:52;;;;;;;4.95;2.10;;;;;;;;;;4263270;33;20112;-66
2022/05/22 11:02:22;;;;;;;4.07;2.70;;;;;;;;;;4276741;33;20108;-66
2022/05/22 11:04:49;;;;;;;3.03;2.45;;;;;;;;;;4276652;33;20115;-66
2022/05/22 11:07:30;;;;;;;2.30;2.10;;;;;;;;;;4263035;33;20547;-65
2022/05/22 11:10:17;;;;;;;4.62;2.20;;;;;;;;;;4276403;33;20421;-65
2022/05/22 11:12:44;;;;;;;3.72;2.35;;;;;;;;;;4266257;33;20587;-66
2022/05/22 11:15:24;;;;;;;3.80;2.22;;;;;;;;;;4276309;33;20193;-65
2022/05/22 11:18:01;;;;;;;3.20;2.05;;;;;;;;;;4276647;33;20211;-66
2022/05/22 11:20:27;;;;;;;5.05;2.37;;;;;;;;;;4276312;33;20139;-66
2022/05/22 11:23:11;;;;;;;4.43;2.20;;;;;;;;;;4276215;33;20111;-66
2022/05/22 11:26:05;;;;;;;3.87;1.85;;;;;;;;;;4276317;33;20131;-66
2022/05/22 11:28:53;;;;;;;3.37;2.10;;;;;;;;;;4276145;33;20088;-66
2022/05/22 11:31:49;;;;;;;3.05;2.00;;;;;;;;;;4276495;33;20528;-66
2022/05/22 11:34:40;;;;;;;3.62;2.10;;;;;;;;;;4276446;33;20124;-66
2022/05/22 11:37:33;;;;;;;3.65;2.53;;;;;;;;;;4276269;33;20129;-66
2022/05/22 11:40:21;;;;;;;3.95;2.05;;;;;;;;;;4276327;33;20089;-66
2022/05/22 11:42:52;;;;;;;4.20;2.45;;;;;;;;;;4276083;33;20532;-66
2022/05/22 11:45:24;;;;;;;2.50;2.12;;;;;;;;;;4262859;33;20096;-66
2022/05/22 11:48:10;;;;;;;4.72;1.80;;;;;;;;;;4263083;33;20112;-66
2022/05/22 11:50:45;;;;;;;2.58;2.03;;;;;;;;;;4276239;33;20139;-66
2022/05/22 11:53:41;;;;;;;5.07;2.33;;;;;;;;;;4276274;33;20512;-66
2022/05/22 11:56:22;;;;;;;2.97;2.08;;;;;;;;;;4276376;33;20088;-66
2022/05/22 11:59:01;;;;;;;4.72;2.35;;;;;;;;;;4276323;33;20621;-68
2022/05/22 12:01:39;;;;;;;2.15;1.85;;;;;;;;;;4262162;33;20187;-65
2022/05/22 12:04:36;;;;;;;2.55;2.10;;;;;;;;;;4262687;33;20203;-65
2022/05/22 12:07:14;;;;;;;6.05;2.40;;;;;;;;;;4275664;33;20096;-64
2022/05/22 12:10:04;;;;;;;2.35;2.15;;;;;;;;;;4275866;33;20108;-66
2022/05/22 12:13:08;;;;;;;2.12;1.92;;;;;;;;;;4270976;33;20112;-66
2022/05/22 12:15:47;;;;;;;3.08;2.12;;;;;;;;;;4246252;33;20116;-64
2022/05/22 12:18:34;;;;;;;4.53;2.35;;;;;;;;;;4259619;33;20545;-65
2022/05/22 12:21:12;;;;;;;4.35;2.15;;;;;;;;;;4261035;33;20088;-65
2022/05/22 12:23:52;;;;;;;5.53;3.33;;;;;;;;;;4261476;33;20122;-65
2022/05/22 12:26:18;;;;;;;4.15;2.42;;;;;;;;;;4259945;33;20496;-67
2022/05/22 12:29:24;;;;;;;7.43;2.90;;;;;;;;;;4247791;33;20128;-66
2022/05/22 12:31:58;;;;;;;4.00;2.12;;;;;;;;;;4255308;33;20115;-67
2022/05/22 12:34:39;;;;;;;3.92;2.10;;;;;;;;;;4275560;33;20211;-65
2022/05/22 12:37:09;;;;;;;5.20;3.72;;;;;;;;;;4262648;33;20249;-67
2022/05/22 12:39:43;;;;;;;2.50;2.30;;;;;;;;;;4275495;33;20563;-65
2022/05/22 12:42:17;;;;;;;3.53;2.30;;;;;;;;;;4275702;33;20123;-67
2022/05/22 12:44:44;;;;;;;5.87;1.92;;;;;;;;;;4274179;33;20119;-67
2022/05/22 12:47:15;;;;;;;4.22;2.47;;;;;;;;;;4262390;33;20448;-67
2022/05/22 12:49:57;;;;;;;5.57;2.10;;;;;;;;;;4275843;33;20113;-67
2022/05/22 12:52:31;;;;;;;4.18;2.08;;;;;;;;;;4275296;33;20108;-64
2022/05/22 12:55:17;;;;;;;4.10;1.90;;;;;;;;;;4274746;33;20111;-65
2022/05/22 12:58:00;;;;;;;5.70;1.83;;;;;;;;;;4273985;33;20174;-66
2022/05/22 13:00:34;;;;;;;4.18;1.73;;;;;;;;;;4275257;33;20128;-66
2022/05/22 13:03:45;;;;;;;3.28;2.30;;;;;;;;;;4275459;33;20135;-65
2022/05/22 13:06:22;;;;;;;3.00;1.92;;;;;;;;;;4265741;33;20117;-68
2022/05/22 13:09:00;;;;;;;2.80;1.95;;;;;;;;;;4261829;33;20188;-67
2022/05/22 13:11:57;;;;;;;2.05;1.90;;;;;;;;;;4273745;33;20128;-67
2022/05/22 13:14:32;;;;;;;2.50;1.90;;;;;;;;;;4242718;33;20108;-70
2022/05/22 13:16:59;;;;;;;2.90;1.65;;;;;;;;;;4261852;33;20127;-68
2022/05/22 13:19:28;;;;;;;2.20;2.00;;;;;;;;;;4249329;33;20119;-67
2022/05/22 13:21:56;;;;;;;2.28;1.95;;;;;;;;;;4275101;33;20115;-66
2022/05/22 13:24:28;;;;;;;2.50;1.98;;;;;;;;;;4275527;33;20111;-67
2022/05/22 13:27:01;;;;;;;4.75;2.37;;;;;;;;;;4275002;33;20206;-68
2022/05/22 13:29:34;;;;;;;7.50;2.60;;;;;;;;;;4268092;33;20526;-68
2022/05/22 13:32:02;;;;;;;4.10;2.12;;;;;;;;;;4254443;33;20544;-65
2022/05/22 13:34:31;;;;;;;4.25;2.22;;;;;;;;;;4247797;33;20535;-65
2022/05/22 13:37:03;;;;;;;3.45;2.25;;;;;;;;;;4259731;33;20185;-65
2022/05/22 13:39:42;;;;;;;4.18;2.00;;;;;;;;;;4247500;33;20117;-65
2022/05/22 13:42:26;;;;;;;2.55;1.90;;;;;;;;;;4260785;33;20126;-65
2022/05/22 13:45:11;;;;;;;3.42;2.17;;;;;;;;;;4268315;33;20112;-64
2022/05/22 13:48:06;;;;;;;4.37;1.92;;;;;;;;;;4267123;33;20713;-64
2022/05/22 13:53:31;;;;;;;7.32;4.07;;;;;;;;;;4274963;33;20496;-65
2022/05/22 13:55:57;;;;;;;2.78;2.17;;;;;;;;;;4274832;33;20098;-66
2022/05/22 13:58:30;;;;;;;2.67;1.92;;;;;;;;;;4261939;33;20526;-65
2022/05/22 14:01:00;;;;;;;4.75;2.30;;;;;;;;;;4249647;33;20130;-64
2022/05/22 14:03:36;;;;;;;2.65;2.30;;;;;;;;;;4250061;33;20119;-64
2022/05/22 14:06:07;;;;;;;3.25;2.05;;;;;;;;;;4250883;33;20123;-67
2022/05/22 14:08:35;;;;;;;2.70;2.10;;;;;;;;;;4261517;33;20183;-66
2022/05/22 14:11:12;;;;;;;1.85;1.67;;;;;;;;;;4261247;33;20565;-65
2022/05/22 14:14:07;;;;;;;2.53;2.00;;;;;;;;;;4261878;33;20175;-64
2022/05/22 14:16:36;;;;;;;9.52;2.30;;;;;;;;;;4261235;33;20511;-65
2022/05/22 14:19:03;;;;;;;2.55;2.00;;;;;;;;;;4274677;33;20128;-60
2022/05/22 14:21:35;;;;;;;3.30;2.00;;;;;;;;;;4274842;33;20136;-60
2022/05/22 14:26:48;;;;;;;2.58;1.80;;;;;;;;;;4262692;33;20468;-61
2022/05/22 14:29:15;;;;;;;3.47;1.92;;;;;;;;;;4266412;33;20111;-67
2022/05/22 14:31:43;;;;;;;3.00;1.90;;;;;;;;;;4258241;33;20516;-62
2022/05/22 14:34:09;;;;;;;2.80;1.98;;;;;;;;;;4260171;33;20451;-63
2022/05/22 14:36:35;;;;;;;2.33;1.95;;;;;;;;;;4268979;33;20120;-63
2022/05/22 14:39:01;;;;;;;2.95;2.00;;;;;;;;;;4274481;33;20223;-62
2022/05/22 14:41:30;;;;;;;5.37;1.87;;;;;;;;;;4274310;33;20300;-64
2022/05/22 14:43:55;;;;;;;2.85;1.92;;;;;;;;;;4274422;33;20101;-63
2022/05/22 14:46:24;;;;;;;5.70;2.12;;;;;;;;;;4274503;33;20131;-62
2022/05/22 14:48:51;;;;;;;4.80;2.80;;;;;;;;;;4274490;33;20115;-63
2022/05/22 14:51:29;;;;;;;5.43;3.00;;;;;;;;;;4261015;33;20122;-62
2022/05/22 14:54:07;;;;;;;2.83;2.17;;;;;;;;;;4274250;33;20503;-62
2022/05/22 14:56:34;;;;;;;2.42;2.17;;;;;;;;;;4274491;33;20528;-63
2022/05/22 14:59:05;;;;;;;3.03;2.45;;;;;;;;;;4271006;33;20200;-63
2022/05/22 15:01:35;;;;;;;2.72;2.10;;;;;;;;;;4272626;33;20097;-63
2022/05/22 15:04:02;;;;;;;3.72;2.20;;;;;;;;;;4261297;33;20115;-64
2022/05/22 15:06:33;;;;;;;3.20;1.73;;;;;;;;;;4268530;33;20124;-65
2022/05/22 15:09:02;;;;;;;5.03;2.00;;;;;;;;;;4257975;33;20130;-66
2022/05/22 15:11:33;;;;;;;3.08;2.00;;;;;;;;;;4254736;33;20116;-65
2022/05/22 15:14:05;;;;;;;4.45;1.83;;;;;;;;;;4267015;33;20791;-64
2022/05/22 15:16:39;;;;;;;4.68;2.20;;;;;;;;;;4273428;33;20101;-68
2022/05/22 15:19:49;;;;;;;2.17;1.95;;;;;;;;;;4260567;33;20515;-67
2022/05/22 15:25:33;;;;;;;4.43;1.85;;;;;;;;;;4262703;33;20107;-64
2022/05/22 15:28:27;;;;;;;3.00;2.00;;;;;;;;;;4274053;33;20115;-65
2022/05/22 15:30:59;;;;;;;7.62;5.43;;;;;;;;;;4256632;33;20590;-65
2022/05/22 15:33:31;;;;;;;3.83;2.85;;;;;;;;;;4273612;33;20090;-66
2022/05/22 15:36:05;;;;;;;2.25;1.70;;;;;;;;;;4257703;33;20132;-65
2022/05/22 15:38:35;;;;;;;3.43;2.23;;;;;;;;;;4264487;33;20101;-70
2022/05/22 15:41:07;;;;;;;7.30;2.40;;;;;;;;;;4273660;33;20449;-65
2022/05/22 15:43:38;;;;;;;4.28;2.15;;;;;;;;;;4260265;33;20120;-69
2022/05/22 15:46:06;;;;;;;4.47;2.42;;;;;;;;;;4269402;33;20112;-68
2022/05/22 15:51:36;;;;;;;2.85;2.20;;;;;;;;;;4260690;33;20207;-65
2022/05/22 15:54:04;;;;;;;8.82;3.00;;;;;;;;;;4276314;33;20100;-63
2022/05/22 15:56:30;;;;;;;5.85;2.45;;;;;;;;;;4263010;33;20092;-65
2022/05/22 15:58:56;;;;;;;3.55;2.20;;;;;;;;;;4269766;33;20221;-63
2022/05/22 16:01:23;;;;;;;3.75;2.90;;;;;;;;;;4275891;33;20642;-62
2022/05/22 16:03:51;;;;;;;3.50;2.10;;;;;;;;;;4276078;33;20110;-68